Etusivu
METAR-TAF:

METAR-TAF

Lentoasemat :

Flying Cloud Airport

Minneapolis / Eden Prairie, Minnesota, Yhdysvallat

Leveyspiiri: 44-49-56N, Pituuspiiri: 093-28-13W, korkeus merenpinnasta: 287 m

Tämänhetkinen sää

Tämä raportti tehtiin 42 minuuttia sitten, kello 23.53 UTC
Tuuli 10 kn etelästä/lounaasta
Lämpötila -1°C
Kosteus 64%
Ilmanpaine 1015 hPa
Näkyvyys: 16.1 km
Hajonneita pilviä 12000 ft:n korkeudessa

METAR: KFCM 272353Z 20010KT 10SM BKN120 M01/M07 A2997 RMK AO2 SLP162 T10111072 10011 21017 58037

Aika: 19:35 (00:35 UTC)


TAF: puuttuu

Säähavainnot ja -ennusteet yli 4000 lentoasemalta (METAR- ja TAF-raportit).

Käytössä olevat sääasemat on merkitty karttaan keltaisilla ja punaisilla pisteillä.

Aseta hiiri pisteen päälle nähdäksesi sääaseman nimen.

Klikkaa sitten nähdäksesi säähavainnot ja -ennusteet.

Kartan vaihtaminen: klikkaa mustalla rastilla varustettuja vihreitä pisteitä, niin voit zoomata sisään; viivalla varustettua vihreää pistettä, niin voit zoomata ulos tai vihreitä nuolia, niin pääset viereisille kartoille.


METAR-TAF: